sensor_id;sensor_type;location;lat;lon;timestamp;temperature;humidity
9527;DHT22;4802;51.494;6.770;2022-07-10T00:05:38;17.40;1.00
9527;DHT22;4802;51.494;6.770;2022-07-10T00:10:43;17.20;1.00
9527;DHT22;4802;51.494;6.770;2022-07-10T00:13:12;17.30;1.00
9527;DHT22;4802;51.494;6.770;2022-07-10T00:15:41;17.40;1.00
9527;DHT22;4802;51.494;6.770;2022-07-10T00:18:10;17.30;1.00
9527;DHT22;4802;51.494;6.770;2022-07-10T00:20:41;17.30;1.00
9527;DHT22;4802;51.494;6.770;2022-07-10T00:23:10;17.40;1.00
9527;DHT22;4802;51.494;6.770;2022-07-10T00:25:38;17.30;1.00
9527;DHT22;4802;51.494;6.770;2022-07-10T00:28:07;17.40;1.00
9527;DHT22;4802;51.494;6.770;2022-07-10T00:30:36;17.50;1.00
9527;DHT22;4802;51.494;6.770;2022-07-10T00:33:05;17.40;1.00
9527;DHT22;4802;51.494;6.770;2022-07-10T00:35:34;17.30;1.00
9527;DHT22;4802;51.494;6.770;2022-07-10T00:38:04;17.30;1.00
9527;DHT22;4802;51.494;6.770;2022-07-10T00:40:33;17.40;1.00
9527;DHT22;4802;51.494;6.770;2022-07-10T00:43:01;17.50;1.00
9527;DHT22;4802;51.494;6.770;2022-07-10T00:45:30;17.50;1.00
9527;DHT22;4802;51.494;6.770;2022-07-10T00:47:59;17.50;1.00
9527;DHT22;4802;51.494;6.770;2022-07-10T00:50:29;17.50;1.00
9527;DHT22;4802;51.494;6.770;2022-07-10T00:52:58;17.50;1.00
9527;DHT22;4802;51.494;6.770;2022-07-10T00:55:29;17.60;1.00
9527;DHT22;4802;51.494;6.770;2022-07-10T00:57:59;17.60;1.00
9527;DHT22;4802;51.494;6.770;2022-07-10T01:00:28;17.50;1.00
9527;DHT22;4802;51.494;6.770;2022-07-10T01:02:58;17.40;1.00
9527;DHT22;4802;51.494;6.770;2022-07-10T01:05:27;17.40;1.00
9527;DHT22;4802;51.494;6.770;2022-07-10T01:07:56;17.50;1.00
9527;DHT22;4802;51.494;6.770;2022-07-10T01:10:25;17.50;1.00
9527;DHT22;4802;51.494;6.770;2022-07-10T01:12:55;17.60;1.00
9527;DHT22;4802;51.494;6.770;2022-07-10T01:15:24;17.60;1.00
9527;DHT22;4802;51.494;6.770;2022-07-10T01:17:53;17.60;1.00
9527;DHT22;4802;51.494;6.770;2022-07-10T01:20:30;17.60;1.00
9527;DHT22;4802;51.494;6.770;2022-07-10T01:23:00;17.50;1.00
9527;DHT22;4802;51.494;6.770;2022-07-10T01:25:29;17.80;1.00
9527;DHT22;4802;51.494;6.770;2022-07-10T01:27:58;17.60;1.00
9527;DHT22;4802;51.494;6.770;2022-07-10T01:30:27;17.50;1.00
9527;DHT22;4802;51.494;6.770;2022-07-10T01:32:56;17.50;1.00
9527;DHT22;4802;51.494;6.770;2022-07-10T01:35:25;17.60;1.00
9527;DHT22;4802;51.494;6.770;2022-07-10T01:37:53;17.50;1.00
9527;DHT22;4802;51.494;6.770;2022-07-10T01:40:23;17.60;1.00
9527;DHT22;4802;51.494;6.770;2022-07-10T01:42:52;17.60;1.00
9527;DHT22;4802;51.494;6.770;2022-07-10T01:45:21;17.60;1.00
9527;DHT22;4802;51.494;6.770;2022-07-10T01:47:50;17.50;1.00
9527;DHT22;4802;51.494;6.770;2022-07-10T01:50:19;17.50;1.00
9527;DHT22;4802;51.494;6.770;2022-07-10T01:52:48;17.40;1.00
9527;DHT22;4802;51.494;6.770;2022-07-10T01:55:17;17.40;1.00
9527;DHT22;4802;51.494;6.770;2022-07-10T01:57:47;17.40;1.00
9527;DHT22;4802;51.494;6.770;2022-07-10T02:00:16;17.50;1.00
9527;DHT22;4802;51.494;6.770;2022-07-10T02:02:45;17.60;1.00
9527;DHT22;4802;51.494;6.770;2022-07-10T02:05:34;17.60;1.00
9527;DHT22;4802;51.494;6.770;2022-07-10T02:08:02;17.60;1.00
9527;DHT22;4802;51.494;6.770;2022-07-10T02:10:33;17.50;1.00
9527;DHT22;4802;51.494;6.770;2022-07-10T02:13:03;17.50;1.00
9527;DHT22;4802;51.494;6.770;2022-07-10T02:15:32;17.40;1.00
9527;DHT22;4802;51.494;6.770;2022-07-10T02:18:01;17.60;1.00
9527;DHT22;4802;51.494;6.770;2022-07-10T02:20:30;17.30;1.00
9527;DHT22;4802;51.494;6.770;2022-07-10T02:23:02;17.30;1.00
9527;DHT22;4802;51.494;6.770;2022-07-10T02:25:31;17.10;1.00
9527;DHT22;4802;51.494;6.770;2022-07-10T02:28:00;17.10;1.00
9527;DHT22;4802;51.494;6.770;2022-07-10T02:30:32;17.30;1.00
9527;DHT22;4802;51.494;6.770;2022-07-10T02:33:01;17.20;1.00
9527;DHT22;4802;51.494;6.770;2022-07-10T02:35:30;17.20;1.00
9527;DHT22;4802;51.494;6.770;2022-07-10T02:37:59;17.20;1.00
9527;DHT22;4802;51.494;6.770;2022-07-10T02:40:28;17.20;1.00
9527;DHT22;4802;51.494;6.770;2022-07-10T02:42:56;17.10;1.00
9527;DHT22;4802;51.494;6.770;2022-07-10T02:45:25;17.30;1.00
9527;DHT22;4802;51.494;6.770;2022-07-10T02:47:56;17.00;1.00
9527;DHT22;4802;51.494;6.770;2022-07-10T02:50:24;16.80;1.00
9527;DHT22;4802;51.494;6.770;2022-07-10T02:52:54;16.80;1.00
9527;DHT22;4802;51.494;6.770;2022-07-10T02:55:23;16.80;1.00
9527;DHT22;4802;51.494;6.770;2022-07-10T02:57:52;16.80;1.00
9527;DHT22;4802;51.494;6.770;2022-07-10T03:00:21;16.80;1.00
9527;DHT22;4802;51.494;6.770;2022-07-10T03:02:50;16.90;1.00
9527;DHT22;4802;51.494;6.770;2022-07-10T03:05:21;16.60;1.00
9527;DHT22;4802;51.494;6.770;2022-07-10T03:07:50;16.60;1.00
9527;DHT22;4802;51.494;6.770;2022-07-10T03:10:19;16.70;1.00
9527;DHT22;4802;51.494;6.770;2022-07-10T03:12:48;16.60;1.00
9527;DHT22;4802;51.494;6.770;2022-07-10T03:15:17;16.70;1.00
9527;DHT22;4802;51.494;6.770;2022-07-10T03:17:46;16.70;1.00
9527;DHT22;4802;51.494;6.770;2022-07-10T03:20:15;16.60;1.00
9527;DHT22;4802;51.494;6.770;2022-07-10T03:22:45;16.70;1.00
9527;DHT22;4802;51.494;6.770;2022-07-10T03:25:14;16.70;1.00
9527;DHT22;4802;51.494;6.770;2022-07-10T03:27:43;16.50;1.00
9527;DHT22;4802;51.494;6.770;2022-07-10T03:30:13;16.40;1.00
9527;DHT22;4802;51.494;6.770;2022-07-10T03:32:42;16.90;1.00
9527;DHT22;4802;51.494;6.770;2022-07-10T03:35:10;16.40;1.00
9527;DHT22;4802;51.494;6.770;2022-07-10T03:37:39;16.50;1.00
9527;DHT22;4802;51.494;6.770;2022-07-10T03:40:10;16.50;1.00
9527;DHT22;4802;51.494;6.770;2022-07-10T03:42:39;16.70;1.00
9527;DHT22;4802;51.494;6.770;2022-07-10T03:45:09;16.60;1.00
9527;DHT22;4802;51.494;6.770;2022-07-10T03:47:37;16.60;1.00
9527;DHT22;4802;51.494;6.770;2022-07-10T03:50:06;16.60;1.00
9527;DHT22;4802;51.494;6.770;2022-07-10T03:52:37;16.50;1.00
9527;DHT22;4802;51.494;6.770;2022-07-10T03:55:06;16.60;1.00
9527;DHT22;4802;51.494;6.770;2022-07-10T03:57:37;16.60;1.00
9527;DHT22;4802;51.494;6.770;2022-07-10T04:00:25;16.60;1.00
9527;DHT22;4802;51.494;6.770;2022-07-10T04:02:56;16.70;1.00
9527;DHT22;4802;51.494;6.770;2022-07-10T04:05:25;16.80;1.00
9527;DHT22;4802;51.494;6.770;2022-07-10T04:07:55;16.90;1.00
9527;DHT22;4802;51.494;6.770;2022-07-10T04:10:27;16.70;1.00
9527;DHT22;4802;51.494;6.770;2022-07-10T04:12:57;16.80;1.00
9527;DHT22;4802;51.494;6.770;2022-07-10T04:15:26;17.00;1.00
9527;DHT22;4802;51.494;6.770;2022-07-10T04:17:55;17.10;1.00
9527;DHT22;4802;51.494;6.770;2022-07-10T04:20:24;17.10;1.00
9527;DHT22;4802;51.494;6.770;2022-07-10T04:22:53;17.20;1.00
9527;DHT22;4802;51.494;6.770;2022-07-10T04:25:22;17.30;1.00
9527;DHT22;4802;51.494;6.770;2022-07-10T04:27:51;17.70;1.00
9527;DHT22;4802;51.494;6.770;2022-07-10T04:30:21;18.30;1.00
9527;DHT22;4802;51.494;6.770;2022-07-10T04:32:50;19.30;1.00
9527;DHT22;4802;51.494;6.770;2022-07-10T04:35:19;20.10;1.00
9527;DHT22;4802;51.494;6.770;2022-07-10T04:37:48;21.00;1.00
9527;DHT22;4802;51.494;6.770;2022-07-10T04:40:17;21.60;1.00
9527;DHT22;4802;51.494;6.770;2022-07-10T04:42:46;22.10;1.00
9527;DHT22;4802;51.494;6.770;2022-07-10T04:45:15;22.40;1.00
9527;DHT22;4802;51.494;6.770;2022-07-10T04:47:45;23.00;1.00
9527;DHT22;4802;51.494;6.770;2022-07-10T04:50:14;23.30;1.00
9527;DHT22;4802;51.494;6.770;2022-07-10T04:52:43;23.50;1.00
9527;DHT22;4802;51.494;6.770;2022-07-10T04:55:11;23.80;1.00
9527;DHT22;4802;51.494;6.770;2022-07-10T04:57:40;24.00;1.00
9527;DHT22;4802;51.494;6.770;2022-07-10T05:00:14;24.00;1.00
9527;DHT22;4802;51.494;6.770;2022-07-10T05:02:45;24.20;1.00
9527;DHT22;4802;51.494;6.770;2022-07-10T05:05:14;24.50;1.00
9527;DHT22;4802;51.494;6.770;2022-07-10T05:07:42;24.90;1.00
9527;DHT22;4802;51.494;6.770;2022-07-10T05:10:11;25.40;1.00
9527;DHT22;4802;51.494;6.770;2022-07-10T05:12:40;25.40;1.00
9527;DHT22;4802;51.494;6.770;2022-07-10T05:15:09;25.40;1.00
9527;DHT22;4802;51.494;6.770;2022-07-10T05:17:38;25.80;1.00
9527;DHT22;4802;51.494;6.770;2022-07-10T05:20:10;25.70;1.00
9527;DHT22;4802;51.494;6.770;2022-07-10T05:22:39;25.70;1.00
9527;DHT22;4802;51.494;6.770;2022-07-10T05:25:08;26.00;1.00
9527;DHT22;4802;51.494;6.770;2022-07-10T05:27:37;26.10;1.00
9527;DHT22;4802;51.494;6.770;2022-07-10T05:30:06;26.70;1.00
9527;DHT22;4802;51.494;6.770;2022-07-10T05:32:42;26.30;1.00
9527;DHT22;4802;51.494;6.770;2022-07-10T05:35:14;25.30;1.00
9527;DHT22;4802;51.494;6.770;2022-07-10T05:37:43;24.20;99.90
9527;DHT22;4802;51.494;6.770;2022-07-10T05:40:12;23.20;99.90
9527;DHT22;4802;51.494;6.770;2022-07-10T05:42:41;22.20;99.90
9527;DHT22;4802;51.494;6.770;2022-07-10T05:45:11;21.40;99.90
9527;DHT22;4802;51.494;6.770;2022-07-10T05:47:41;21.00;99.90
9527;DHT22;4802;51.494;6.770;2022-07-10T05:50:10;20.90;1.00
9527;DHT22;4802;51.494;6.770;2022-07-10T05:52:40;20.80;1.00
9527;DHT22;4802;51.494;6.770;2022-07-10T05:55:09;20.70;1.00
9527;DHT22;4802;51.494;6.770;2022-07-10T05:57:38;20.70;1.00
9527;DHT22;4802;51.494;6.770;2022-07-10T06:00:09;20.40;1.00
9527;DHT22;4802;51.494;6.770;2022-07-10T06:02:38;20.40;1.00
9527;DHT22;4802;51.494;6.770;2022-07-10T06:05:08;20.30;1.00
9527;DHT22;4802;51.494;6.770;2022-07-10T06:07:37;20.30;1.00
9527;DHT22;4802;51.494;6.770;2022-07-10T06:10:08;20.20;1.00
9527;DHT22;4802;51.494;6.770;2022-07-10T06:12:38;20.10;1.00
9527;DHT22;4802;51.494;6.770;2022-07-10T06:15:08;20.20;1.00
9527;DHT22;4802;51.494;6.770;2022-07-10T06:17:44;20.30;1.00
9527;DHT22;4802;51.494;6.770;2022-07-10T06:20:14;19.70;1.00
9527;DHT22;4802;51.494;6.770;2022-07-10T06:22:43;19.10;1.00
9527;DHT22;4802;51.494;6.770;2022-07-10T06:25:13;18.60;1.00
9527;DHT22;4802;51.494;6.770;2022-07-10T06:27:42;18.10;1.00
9527;DHT22;4802;51.494;6.770;2022-07-10T06:30:11;18.10;1.00
9527;DHT22;4802;51.494;6.770;2022-07-10T06:32:40;17.80;1.00
9527;DHT22;4802;51.494;6.770;2022-07-10T06:35:09;17.70;1.00
9527;DHT22;4802;51.494;6.770;2022-07-10T06:37:38;17.50;1.00
9527;DHT22;4802;51.494;6.770;2022-07-10T06:40:09;17.50;1.00
9527;DHT22;4802;51.494;6.770;2022-07-10T06:42:39;17.50;1.00
9527;DHT22;4802;51.494;6.770;2022-07-10T06:45:11;17.50;1.00
9527;DHT22;4802;51.494;6.770;2022-07-10T06:47:40;17.50;1.00
9527;DHT22;4802;51.494;6.770;2022-07-10T06:50:26;17.50;1.00
9527;DHT22;4802;51.494;6.770;2022-07-10T06:52:57;17.60;1.00
9527;DHT22;4802;51.494;6.770;2022-07-10T06:55:26;17.70;1.00
9527;DHT22;4802;51.494;6.770;2022-07-10T06:57:57;17.60;1.00
9527;DHT22;4802;51.494;6.770;2022-07-10T07:00:26;17.50;1.00
9527;DHT22;4802;51.494;6.770;2022-07-10T07:02:55;17.50;1.00
9527;DHT22;4802;51.494;6.770;2022-07-10T07:05:25;17.50;1.00
9527;DHT22;4802;51.494;6.770;2022-07-10T07:07:54;17.40;1.00
9527;DHT22;4802;51.494;6.770;2022-07-10T07:10:23;17.50;1.00
9527;DHT22;4802;51.494;6.770;2022-07-10T07:12:52;17.50;1.00
9527;DHT22;4802;51.494;6.770;2022-07-10T07:15:22;17.50;1.00
9527;DHT22;4802;51.494;6.770;2022-07-10T07:17:52;17.50;1.00
9527;DHT22;4802;51.494;6.770;2022-07-10T07:20:38;17.40;1.00
9527;DHT22;4802;51.494;6.770;2022-07-10T07:23:25;17.40;1.00
9527;DHT22;4802;51.494;6.770;2022-07-10T07:25:55;17.30;1.00
9527;DHT22;4802;51.494;6.770;2022-07-10T07:28:23;17.30;1.00
9527;DHT22;4802;51.494;6.770;2022-07-10T07:30:53;17.30;1.00
9527;DHT22;4802;51.494;6.770;2022-07-10T07:33:22;17.10;1.00
9527;DHT22;4802;51.494;6.770;2022-07-10T07:35:52;17.10;1.00
9527;DHT22;4802;51.494;6.770;2022-07-10T07:38:21;17.10;1.00
9527;DHT22;4802;51.494;6.770;2022-07-10T07:40:50;17.10;1.00
9527;DHT22;4802;51.494;6.770;2022-07-10T07:43:19;17.10;1.00
9527;DHT22;4802;51.494;6.770;2022-07-10T07:45:48;17.10;1.00
9527;DHT22;4802;51.494;6.770;2022-07-10T07:48:19;17.10;1.00
9527;DHT22;4802;51.494;6.770;2022-07-10T07:50:48;17.10;1.00
9527;DHT22;4802;51.494;6.770;2022-07-10T07:53:17;16.80;1.00
9527;DHT22;4802;51.494;6.770;2022-07-10T07:55:46;16.70;1.00
9527;DHT22;4802;51.494;6.770;2022-07-10T07:58:15;16.60;20.20
9527;DHT22;4802;51.494;6.770;2022-07-10T08:00:45;16.60;31.60
9527;DHT22;4802;51.494;6.770;2022-07-10T08:03:14;16.50;99.90
9527;DHT22;4802;51.494;6.770;2022-07-10T08:05:44;16.40;99.90
9527;DHT22;4802;51.494;6.770;2022-07-10T08:08:19;16.30;99.90
9527;DHT22;4802;51.494;6.770;2022-07-10T08:10:48;16.40;99.90
9527;DHT22;4802;51.494;6.770;2022-07-10T08:13:17;16.40;99.90
9527;DHT22;4802;51.494;6.770;2022-07-10T08:15:47;16.60;99.90
9527;DHT22;4802;51.494;6.770;2022-07-10T08:18:24;16.40;99.90
9527;DHT22;4802;51.494;6.770;2022-07-10T08:20:55;16.40;99.90
9527;DHT22;4802;51.494;6.770;2022-07-10T08:23:26;16.50;99.90
9527;DHT22;4802;51.494;6.770;2022-07-10T08:25:55;16.60;99.90
9527;DHT22;4802;51.494;6.770;2022-07-10T08:28:24;16.70;99.90
9527;DHT22;4802;51.494;6.770;2022-07-10T08:30:53;16.70;99.90
9527;DHT22;4802;51.494;6.770;2022-07-10T08:33:23;16.90;99.90
9527;DHT22;4802;51.494;6.770;2022-07-10T08:35:52;16.10;99.90
9527;DHT22;4802;51.494;6.770;2022-07-10T08:38:49;16.90;99.90
9527;DHT22;4802;51.494;6.770;2022-07-10T08:41:26;17.00;99.90
9527;DHT22;4802;51.494;6.770;2022-07-10T08:43:57;16.90;99.90
9527;DHT22;4802;51.494;6.770;2022-07-10T08:46:42;17.10;99.90
9527;DHT22;4802;51.494;6.770;2022-07-10T08:49:13;17.10;99.90
9527;DHT22;4802;51.494;6.770;2022-07-10T08:51:51;16.80;99.90
9527;DHT22;4802;51.494;6.770;2022-07-10T08:54:28;17.20;99.90
9527;DHT22;4802;51.494;6.770;2022-07-10T08:57:01;17.20;99.90
9527;DHT22;4802;51.494;6.770;2022-07-10T08:59:31;17.40;99.90
9527;DHT22;4802;51.494;6.770;2022-07-10T09:02:03;17.40;99.90
9527;DHT22;4802;51.494;6.770;2022-07-10T09:04:34;17.70;99.90
9527;DHT22;4802;51.494;6.770;2022-07-10T09:07:04;17.80;80.60
9527;DHT22;4802;51.494;6.770;2022-07-10T09:09:51;17.90;98.40
9527;DHT22;4802;51.494;6.770;2022-07-10T09:12:22;17.60;80.20
9527;DHT22;4802;51.494;6.770;2022-07-10T09:14:53;17.60;61.70
9527;DHT22;4802;51.494;6.770;2022-07-10T09:17:22;17.50;99.90
9527;DHT22;4802;51.494;6.770;2022-07-10T09:19:51;17.40;99.90
9527;DHT22;4802;51.494;6.770;2022-07-10T09:22:22;17.30;99.90
9527;DHT22;4802;51.494;6.770;2022-07-10T09:24:53;17.30;99.90
9527;DHT22;4802;51.494;6.770;2022-07-10T09:27:22;17.60;99.90
9527;DHT22;4802;51.494;6.770;2022-07-10T09:29:53;17.30;99.90
9527;DHT22;4802;51.494;6.770;2022-07-10T09:32:24;17.20;99.90
9527;DHT22;4802;51.494;6.770;2022-07-10T09:34:54;17.30;99.90
9527;DHT22;4802;51.494;6.770;2022-07-10T09:37:39;17.30;99.90
9527;DHT22;4802;51.494;6.770;2022-07-10T09:40:11;17.20;99.90
9527;DHT22;4802;51.494;6.770;2022-07-10T09:42:42;17.30;99.90
9527;DHT22;4802;51.494;6.770;2022-07-10T09:45:18;17.50;99.90
9527;DHT22;4802;51.494;6.770;2022-07-10T09:47:56;17.50;99.90
9527;DHT22;4802;51.494;6.770;2022-07-10T09:50:30;17.60;99.90
9527;DHT22;4802;51.494;6.770;2022-07-10T09:53:00;17.70;99.90
9527;DHT22;4802;51.494;6.770;2022-07-10T09:55:34;17.80;99.90
9527;DHT22;4802;51.494;6.770;2022-07-10T09:58:05;17.90;99.90
9527;DHT22;4802;51.494;6.770;2022-07-10T10:00:38;17.90;99.90
9527;DHT22;4802;51.494;6.770;2022-07-10T10:03:09;17.90;99.90
9527;DHT22;4802;51.494;6.770;2022-07-10T10:05:43;17.90;99.90
9527;DHT22;4802;51.494;6.770;2022-07-10T10:08:20;17.90;99.90
9527;DHT22;4802;51.494;6.770;2022-07-10T10:10:53;17.80;99.90
9527;DHT22;4802;51.494;6.770;2022-07-10T10:13:26;17.60;99.90
9527;DHT22;4802;51.494;6.770;2022-07-10T10:16:10;17.70;99.90
9527;DHT22;4802;51.494;6.770;2022-07-10T10:18:41;17.50;99.90
9527;DHT22;4802;51.494;6.770;2022-07-10T10:21:26;17.80;99.90
9527;DHT22;4802;51.494;6.770;2022-07-10T10:23:57;17.90;99.90
9527;DHT22;4802;51.494;6.770;2022-07-10T10:26:43;18.00;99.90
9527;DHT22;4802;51.494;6.770;2022-07-10T10:29:14;18.00;99.90
9527;DHT22;4802;51.494;6.770;2022-07-10T10:31:52;18.00;99.90
9527;DHT22;4802;51.494;6.770;2022-07-10T10:34:42;18.10;99.90
9527;DHT22;4802;51.494;6.770;2022-07-10T10:37:33;18.10;99.90
9527;DHT22;4802;51.494;6.770;2022-07-10T10:40:32;18.10;99.90
9527;DHT22;4802;51.494;6.770;2022-07-10T10:43:36;18.00;99.90
9527;DHT22;4802;51.494;6.770;2022-07-10T10:46:24;18.00;99.90
9527;DHT22;4802;51.494;6.770;2022-07-10T10:49:08;18.00;99.90
9527;DHT22;4802;51.494;6.770;2022-07-10T10:51:56;18.00;99.90
9527;DHT22;4802;51.494;6.770;2022-07-10T10:54:29;17.90;99.90
9527;DHT22;4802;51.494;6.770;2022-07-10T10:57:19;18.10;99.90
9527;DHT22;4802;51.494;6.770;2022-07-10T10:59:55;18.30;99.90
9527;DHT22;4802;51.494;6.770;2022-07-10T11:02:28;19.30;99.90
9527;DHT22;4802;51.494;6.770;2022-07-10T11:08:03;19.70;20.20
9527;DHT22;4802;51.494;6.770;2022-07-10T11:10:36;19.60;1.00
9527;DHT22;4802;51.494;6.770;2022-07-10T11:13:15;19.70;26.50
9527;DHT22;4802;51.494;6.770;2022-07-10T11:15:49;19.40;28.30
9527;DHT22;4802;51.494;6.770;2022-07-10T11:18:23;19.30;52.80
9527;DHT22;4802;51.494;6.770;2022-07-10T11:21:02;19.20;1.00
9527;DHT22;4802;51.494;6.770;2022-07-10T11:23:51;19.20;30.80
9527;DHT22;4802;51.494;6.770;2022-07-10T11:26:34;19.20;1.00
9527;DHT22;4802;51.494;6.770;2022-07-10T11:29:08;19.30;1.00
9527;DHT22;4802;51.494;6.770;2022-07-10T11:31:52;19.50;1.00
9527;DHT22;4802;51.494;6.770;2022-07-10T11:34:22;19.60;1.00
9527;DHT22;4802;51.494;6.770;2022-07-10T11:36:51;19.50;1.00
9527;DHT22;4802;51.494;6.770;2022-07-10T11:39:23;19.80;1.00
9527;DHT22;4802;51.494;6.770;2022-07-10T11:41:52;19.70;1.00
9527;DHT22;4802;51.494;6.770;2022-07-10T11:44:22;19.70;1.00
9527;DHT22;4802;51.494;6.770;2022-07-10T11:47:06;19.40;1.00
9527;DHT22;4802;51.494;6.770;2022-07-10T11:49:44;19.20;1.00
9527;DHT22;4802;51.494;6.770;2022-07-10T11:52:15;19.10;1.00
9527;DHT22;4802;51.494;6.770;2022-07-10T11:54:47;19.10;1.00
9527;DHT22;4802;51.494;6.770;2022-07-10T11:57:18;19.30;1.00
9527;DHT22;4802;51.494;6.770;2022-07-10T11:59:50;20.70;1.00
9527;DHT22;4802;51.494;6.770;2022-07-10T12:02:26;21.40;1.00
9527;DHT22;4802;51.494;6.770;2022-07-10T12:04:56;21.60;1.00
9527;DHT22;4802;51.494;6.770;2022-07-10T12:07:26;21.70;1.00
9527;DHT22;4802;51.494;6.770;2022-07-10T12:10:01;21.50;1.00
9527;DHT22;4802;51.494;6.770;2022-07-10T12:12:31;21.70;1.00
9527;DHT22;4802;51.494;6.770;2022-07-10T12:15:01;21.70;1.00
9527;DHT22;4802;51.494;6.770;2022-07-10T12:17:33;21.60;1.00
9527;DHT22;4802;51.494;6.770;2022-07-10T12:20:05;21.80;1.00
9527;DHT22;4802;51.494;6.770;2022-07-10T12:22:36;21.90;1.00
9527;DHT22;4802;51.494;6.770;2022-07-10T12:25:08;22.00;1.00
9527;DHT22;4802;51.494;6.770;2022-07-10T12:27:39;22.00;1.00
9527;DHT22;4802;51.494;6.770;2022-07-10T12:30:09;22.50;1.00
9527;DHT22;4802;51.494;6.770;2022-07-10T12:36:09;23.20;1.00
9527;DHT22;4802;51.494;6.770;2022-07-10T12:38:54;23.20;1.00
9527;DHT22;4802;51.494;6.770;2022-07-10T12:41:59;23.40;1.00
9527;DHT22;4802;51.494;6.770;2022-07-10T12:44:35;23.50;1.00
9527;DHT22;4802;51.494;6.770;2022-07-10T12:47:08;23.30;1.00
9527;DHT22;4802;51.494;6.770;2022-07-10T12:49:50;23.30;1.00
9527;DHT22;4802;51.494;6.770;2022-07-10T12:52:30;23.30;1.00
9527;DHT22;4802;51.494;6.770;2022-07-10T12:55:12;23.10;1.00
9527;DHT22;4802;51.494;6.770;2022-07-10T12:57:52;23.10;1.00
9527;DHT22;4802;51.494;6.770;2022-07-10T13:00:28;23.20;1.00
9527;DHT22;4802;51.494;6.770;2022-07-10T13:03:00;23.40;1.00
9527;DHT22;4802;51.494;6.770;2022-07-10T13:05:33;23.40;1.00
9527;DHT22;4802;51.494;6.770;2022-07-10T13:08:10;23.40;1.00
9527;DHT22;4802;51.494;6.770;2022-07-10T13:10:43;23.50;1.00
9527;DHT22;4802;51.494;6.770;2022-07-10T13:13:16;23.50;1.00
9527;DHT22;4802;51.494;6.770;2022-07-10T13:15:48;23.50;1.00
9527;DHT22;4802;51.494;6.770;2022-07-10T13:18:23;23.50;1.00
9527;DHT22;4802;51.494;6.770;2022-07-10T13:20:53;23.60;1.00
9527;DHT22;4802;51.494;6.770;2022-07-10T13:23:29;23.70;1.00
9527;DHT22;4802;51.494;6.770;2022-07-10T13:26:00;23.80;1.00
9527;DHT22;4802;51.494;6.770;2022-07-10T13:28:36;23.90;1.00
9527;DHT22;4802;51.494;6.770;2022-07-10T13:31:16;23.90;1.00
9527;DHT22;4802;51.494;6.770;2022-07-10T13:33:49;23.90;1.00
9527;DHT22;4802;51.494;6.770;2022-07-10T13:36:19;23.60;1.00
9527;DHT22;4802;51.494;6.770;2022-07-10T13:38:52;23.20;1.00
9527;DHT22;4802;51.494;6.770;2022-07-10T13:41:23;23.10;1.00
9527;DHT22;4802;51.494;6.770;2022-07-10T13:43:53;22.80;1.00
9527;DHT22;4802;51.494;6.770;2022-07-10T13:46:24;22.70;1.00
9527;DHT22;4802;51.494;6.770;2022-07-10T13:48:53;22.60;1.00
9527;DHT22;4802;51.494;6.770;2022-07-10T13:51:27;22.50;1.00
9527;DHT22;4802;51.494;6.770;2022-07-10T13:53:58;22.50;1.00
9527;DHT22;4802;51.494;6.770;2022-07-10T13:56:28;22.40;1.00
9527;DHT22;4802;51.494;6.770;2022-07-10T13:58:58;22.40;1.00
9527;DHT22;4802;51.494;6.770;2022-07-10T14:01:29;22.40;1.00
9527;DHT22;4802;51.494;6.770;2022-07-10T14:04:01;22.50;1.00
9527;DHT22;4802;51.494;6.770;2022-07-10T14:06:30;22.50;1.00
9527;DHT22;4802;51.494;6.770;2022-07-10T14:09:00;22.50;1.00
9527;DHT22;4802;51.494;6.770;2022-07-10T14:11:38;22.40;1.00
9527;DHT22;4802;51.494;6.770;2022-07-10T14:14:08;22.40;1.00
9527;DHT22;4802;51.494;6.770;2022-07-10T14:16:40;22.30;1.00
9527;DHT22;4802;51.494;6.770;2022-07-10T14:19:10;22.30;1.00
9527;DHT22;4802;51.494;6.770;2022-07-10T14:21:40;22.40;1.00
9527;DHT22;4802;51.494;6.770;2022-07-10T14:24:11;22.70;1.00
9527;DHT22;4802;51.494;6.770;2022-07-10T14:26:47;22.70;1.00
9527;DHT22;4802;51.494;6.770;2022-07-10T14:29:16;22.60;1.00
9527;DHT22;4802;51.494;6.770;2022-07-10T14:31:48;22.60;1.00
9527;DHT22;4802;51.494;6.770;2022-07-10T14:34:20;22.60;1.00
9527;DHT22;4802;51.494;6.770;2022-07-10T14:36:51;22.60;1.00
9527;DHT22;4802;51.494;6.770;2022-07-10T14:39:28;22.60;1.00
9527;DHT22;4802;51.494;6.770;2022-07-10T14:41:57;22.70;1.00
9527;DHT22;4802;51.494;6.770;2022-07-10T14:44:33;22.70;1.00
9527;DHT22;4802;51.494;6.770;2022-07-10T14:47:02;22.60;1.00
9527;DHT22;4802;51.494;6.770;2022-07-10T14:49:33;22.80;1.00
9527;DHT22;4802;51.494;6.770;2022-07-10T14:52:04;22.80;1.00
9527;DHT22;4802;51.494;6.770;2022-07-10T14:54:48;22.90;1.00
9527;DHT22;4802;51.494;6.770;2022-07-10T14:57:19;23.20;1.00
9527;DHT22;4802;51.494;6.770;2022-07-10T14:59:49;23.10;1.00
9527;DHT22;4802;51.494;6.770;2022-07-10T15:02:18;23.10;1.00
9527;DHT22;4802;51.494;6.770;2022-07-10T15:04:48;23.10;1.00
9527;DHT22;4802;51.494;6.770;2022-07-10T15:07:18;23.10;1.00
9527;DHT22;4802;51.494;6.770;2022-07-10T15:09:49;23.10;1.00
9527;DHT22;4802;51.494;6.770;2022-07-10T15:12:19;22.90;1.00
9527;DHT22;4802;51.494;6.770;2022-07-10T15:14:52;22.90;1.00
9527;DHT22;4802;51.494;6.770;2022-07-10T15:17:24;22.90;1.00
9527;DHT22;4802;51.494;6.770;2022-07-10T15:19:59;22.90;1.00
9527;DHT22;4802;51.494;6.770;2022-07-10T15:22:30;23.00;1.00
9527;DHT22;4802;51.494;6.770;2022-07-10T15:25:03;23.10;1.00
9527;DHT22;4802;51.494;6.770;2022-07-10T15:27:35;23.10;1.00
9527;DHT22;4802;51.494;6.770;2022-07-10T15:30:07;23.20;1.00
9527;DHT22;4802;51.494;6.770;2022-07-10T15:32:40;23.10;1.00
9527;DHT22;4802;51.494;6.770;2022-07-10T15:35:10;23.10;1.00
9527;DHT22;4802;51.494;6.770;2022-07-10T15:37:39;23.10;1.00
9527;DHT22;4802;51.494;6.770;2022-07-10T15:40:10;23.10;1.00
9527;DHT22;4802;51.494;6.770;2022-07-10T15:42:45;23.10;1.00
9527;DHT22;4802;51.494;6.770;2022-07-10T15:45:15;23.00;1.00
9527;DHT22;4802;51.494;6.770;2022-07-10T15:47:46;23.10;1.00
9527;DHT22;4802;51.494;6.770;2022-07-10T15:50:16;23.00;1.00
9527;DHT22;4802;51.494;6.770;2022-07-10T15:52:49;22.90;1.00
9527;DHT22;4802;51.494;6.770;2022-07-10T15:55:21;22.80;1.00
9527;DHT22;4802;51.494;6.770;2022-07-10T15:57:50;23.00;1.00
9527;DHT22;4802;51.494;6.770;2022-07-10T16:00:20;23.10;1.00
9527;DHT22;4802;51.494;6.770;2022-07-10T16:02:49;22.90;1.00
9527;DHT22;4802;51.494;6.770;2022-07-10T16:05:24;22.90;1.00
9527;DHT22;4802;51.494;6.770;2022-07-10T16:07:53;22.90;1.00
9527;DHT22;4802;51.494;6.770;2022-07-10T16:10:24;22.80;1.00
9527;DHT22;4802;51.494;6.770;2022-07-10T16:12:53;22.80;1.00
9527;DHT22;4802;51.494;6.770;2022-07-10T16:15:23;22.70;1.00
9527;DHT22;4802;51.494;6.770;2022-07-10T16:17:52;22.80;1.00
9527;DHT22;4802;51.494;6.770;2022-07-10T16:20:21;22.50;1.00
9527;DHT22;4802;51.494;6.770;2022-07-10T16:22:51;22.60;1.00
9527;DHT22;4802;51.494;6.770;2022-07-10T16:25:20;22.40;1.00
9527;DHT22;4802;51.494;6.770;2022-07-10T16:28:08;22.50;1.00
9527;DHT22;4802;51.494;6.770;2022-07-10T16:30:39;22.50;1.00
9527;DHT22;4802;51.494;6.770;2022-07-10T16:33:08;22.30;1.00
9527;DHT22;4802;51.494;6.770;2022-07-10T16:35:40;22.30;1.00
9527;DHT22;4802;51.494;6.770;2022-07-10T16:38:09;22.30;1.00
9527;DHT22;4802;51.494;6.770;2022-07-10T16:40:41;22.30;1.00
9527;DHT22;4802;51.494;6.770;2022-07-10T16:43:12;22.30;1.00
9527;DHT22;4802;51.494;6.770;2022-07-10T16:45:42;22.30;1.00
9527;DHT22;4802;51.494;6.770;2022-07-10T16:48:12;22.30;1.00
9527;DHT22;4802;51.494;6.770;2022-07-10T16:50:41;22.30;1.00
9527;DHT22;4802;51.494;6.770;2022-07-10T16:53:10;22.20;1.00
9527;DHT22;4802;51.494;6.770;2022-07-10T16:55:41;22.20;1.00
9527;DHT22;4802;51.494;6.770;2022-07-10T16:58:27;22.20;1.00